createdAt,value
2018-02-24T00:00:09.037Z,97.90
2018-02-24T00:02:38.442Z,98.10
2018-02-24T00:05:07.114Z,98.10
2018-02-24T00:07:36.548Z,99.10
2018-02-24T00:10:05.213Z,99.10
2018-02-24T00:12:33.873Z,98.90
2018-02-24T00:15:02.531Z,99.10
2018-02-24T00:17:31.988Z,99.50
2018-02-24T00:20:00.651Z,99.50
2018-02-24T00:22:28.644Z,99.70
2018-02-24T00:24:57.308Z,99.80
2018-02-24T00:27:26.762Z,99.90
2018-02-24T00:29:55.432Z,99.90
2018-02-24T00:32:24.074Z,99.90
2018-02-24T00:34:53.504Z,99.90
2018-02-24T00:37:22.172Z,99.90
2018-02-24T00:39:51.596Z,99.90
2018-02-24T00:42:20.245Z,99.90
2018-02-24T00:44:48.895Z,99.90
2018-02-24T00:47:17.361Z,99.90
2018-02-24T00:49:46.645Z,99.90
2018-02-24T00:52:15.315Z,99.90
2018-02-24T00:54:44.739Z,99.90
2018-02-24T00:57:13.219Z,99.90
2018-02-24T00:59:41.942Z,99.90
2018-02-24T01:02:10.488Z,99.90
2018-02-24T01:04:38.957Z,99.90
2018-02-24T01:07:07.644Z,99.90
2018-02-24T01:09:36.300Z,99.90
2018-02-24T01:12:04.959Z,99.90
2018-02-24T01:14:33.597Z,99.90
2018-02-24T01:17:02.255Z,99.90
2018-02-24T01:19:30.916Z,99.90
2018-02-24T01:21:59.548Z,99.90
2018-02-24T01:24:28.972Z,99.90
2018-02-24T01:26:57.725Z,99.90
2018-02-24T01:29:27.174Z,99.90
2018-02-24T01:31:55.824Z,99.90
2018-02-24T01:34:24.484Z,99.90
2018-02-24T01:36:53.124Z,99.90
2018-02-24T01:39:21.815Z,99.90
2018-02-24T01:41:50.480Z,99.90
2018-02-24T01:44:19.138Z,99.90
2018-02-24T01:46:48.555Z,99.90
2018-02-24T01:49:17.296Z,99.90
2018-02-24T01:51:45.960Z,99.90
2018-02-24T01:54:14.617Z,99.90
2018-02-24T01:56:43.264Z,99.90
2018-02-24T01:59:11.909Z,99.90
2018-02-24T02:01:40.576Z,99.90
2018-02-24T02:04:09.233Z,99.90
2018-02-24T02:06:38.664Z,99.90
2018-02-24T02:09:07.304Z,99.90
2018-02-24T02:11:35.985Z,99.90
2018-02-24T02:14:04.627Z,99.90
2018-02-24T02:16:33.288Z,99.90
2018-02-24T02:19:01.928Z,99.90
2018-02-24T02:21:30.614Z,99.90
2018-02-24T02:23:59.263Z,99.90
2018-02-24T02:26:27.928Z,99.90
2018-02-24T02:28:56.582Z,99.90
2018-02-24T02:31:25.247Z,99.90
2018-02-24T02:33:53.574Z,99.90
2018-02-24T02:36:23.001Z,99.90
2018-02-24T02:38:51.656Z,99.90
2018-02-24T02:41:20.326Z,99.90
2018-02-24T02:43:49.769Z,99.90
2018-02-24T02:46:18.420Z,99.90
2018-02-24T02:48:47.853Z,99.90
2018-02-24T02:51:16.501Z,99.90
2018-02-24T02:53:45.941Z,99.90
2018-02-24T02:56:14.592Z,99.90
2018-02-24T02:58:44.222Z,99.90
2018-02-24T03:01:12.875Z,99.90
2018-02-24T03:03:41.544Z,99.90
2018-02-24T03:06:10.015Z,99.90
2018-02-24T03:08:38.671Z,99.90
2018-02-24T03:11:07.425Z,99.90
2018-02-24T03:13:35.765Z,99.90
2018-02-24T03:16:04.070Z,99.90
2018-02-24T03:18:32.728Z,99.90
2018-02-24T03:21:01.392Z,99.90
2018-02-24T03:23:30.079Z,99.90
2018-02-24T03:25:58.724Z,99.90
2018-02-24T03:28:27.388Z,99.90
2018-02-24T03:30:56.053Z,99.90
2018-02-24T03:33:24.701Z,99.90
2018-02-24T03:35:53.392Z,99.90
2018-02-24T03:38:22.030Z,99.90
2018-02-24T03:40:50.747Z,99.90
2018-02-24T03:43:19.413Z,99.90
2018-02-24T03:45:48.657Z,99.90
2018-02-24T03:48:17.306Z,99.90
2018-02-24T03:50:46.538Z,99.90
2018-02-24T03:53:15.003Z,99.90
2018-02-24T03:55:43.462Z,99.90
2018-02-24T03:58:12.874Z,99.90
2018-02-24T04:00:41.532Z,99.90
2018-02-24T04:03:10.955Z,99.90
2018-02-24T04:05:39.434Z,99.90
2018-02-24T04:08:08.087Z,99.90
2018-02-24T04:10:36.727Z,99.90
2018-02-24T04:13:05.390Z,99.90
2018-02-24T04:15:34.037Z,99.90
2018-02-24T04:18:02.706Z,99.90
2018-02-24T04:20:31.348Z,99.90
2018-02-24T04:22:59.675Z,99.90
2018-02-24T04:25:28.327Z,99.90
2018-02-24T04:27:56.996Z,99.90
2018-02-24T04:30:25.647Z,99.90
2018-02-24T04:32:54.309Z,99.90
2018-02-24T04:35:22.961Z,99.90
2018-02-24T04:37:51.641Z,99.90
2018-02-24T04:40:20.284Z,99.90
2018-02-24T04:42:49.716Z,99.90
2018-02-24T04:45:19.120Z,99.90
2018-02-24T04:47:47.792Z,99.90
2018-02-24T04:50:17.205Z,99.90
2018-02-24T04:52:45.863Z,99.90
2018-02-24T04:55:14.559Z,99.90
2018-02-24T04:57:43.963Z,99.90
2018-02-24T05:00:13.385Z,99.90
2018-02-24T05:02:42.035Z,99.90
2018-02-24T05:05:10.357Z,99.90
2018-02-24T05:07:39.015Z,99.90
2018-02-24T05:10:08.434Z,99.90
2018-02-24T05:12:37.081Z,99.90
2018-02-24T05:15:05.745Z,99.90
2018-02-24T05:17:34.409Z,99.90
2018-02-24T05:20:03.060Z,99.90
2018-02-24T05:22:31.761Z,99.90
2018-02-24T05:25:00.531Z,99.90
2018-02-24T05:27:29.192Z,99.90
2018-02-24T05:29:57.844Z,99.90
2018-02-24T05:32:26.485Z,99.90
2018-02-24T05:34:55.904Z,99.90
2018-02-24T05:37:24.556Z,99.90
2018-02-24T05:39:53.246Z,99.90
2018-02-24T05:42:22.655Z,99.90
2018-02-24T05:44:52.071Z,99.90
2018-02-24T05:47:20.727Z,99.90
2018-02-24T05:49:49.528Z,99.90
2018-02-24T05:52:18.950Z,99.90
2018-02-24T05:54:47.596Z,99.90
2018-02-24T05:57:16.259Z,99.90
2018-02-24T05:59:44.904Z,99.90
2018-02-24T06:02:13.465Z,99.90
2018-02-24T06:04:42.942Z,99.90
2018-02-24T06:07:11.621Z,99.90
2018-02-24T06:09:40.273Z,99.90
2018-02-24T06:12:08.919Z,99.90
2018-02-24T06:14:37.578Z,99.90
2018-02-24T06:17:06.233Z,99.90
2018-02-24T06:19:34.905Z,99.90
2018-02-24T06:22:03.584Z,99.90
2018-02-24T06:24:32.231Z,99.90
2018-02-24T06:27:00.867Z,99.90
2018-02-24T06:29:29.530Z,99.90
2018-02-24T06:31:58.762Z,99.90
2018-02-24T06:34:27.239Z,99.90
2018-02-24T06:36:55.884Z,99.90
2018-02-24T06:39:25.313Z,99.90
2018-02-24T06:41:54.085Z,99.90
2018-02-24T06:44:22.784Z,99.90
2018-02-24T06:46:51.464Z,99.90
2018-02-24T06:49:20.124Z,99.90
2018-02-24T06:51:48.755Z,99.90
2018-02-24T06:54:17.440Z,99.90
2018-02-24T06:56:45.779Z,99.90
2018-02-24T06:59:15.204Z,99.90
2018-02-24T07:01:43.863Z,99.90
2018-02-24T07:04:13.279Z,99.90
2018-02-24T07:06:41.932Z,99.90
2018-02-24T07:09:10.576Z,99.90
2018-02-24T07:11:39.263Z,99.90
2018-02-24T07:14:07.941Z,99.90
2018-02-24T07:16:36.671Z,99.90
2018-02-24T07:19:05.332Z,99.90
2018-02-24T07:21:33.814Z,99.90
2018-02-24T07:24:03.281Z,99.90
2018-02-24T07:26:31.968Z,99.90
2018-02-24T07:29:00.613Z,99.90
2018-02-24T07:31:29.275Z,99.90
2018-02-24T07:33:57.940Z,99.90
2018-02-24T07:36:26.611Z,99.90
2018-02-24T07:38:55.260Z,99.90
2018-02-24T07:41:24.804Z,99.90
2018-02-24T07:43:53.480Z,99.90
2018-02-24T07:46:22.139Z,99.80
2018-02-24T07:48:50.882Z,99.70
2018-02-24T07:51:19.563Z,99.10
2018-02-24T07:53:48.260Z,98.60
2018-02-24T07:56:16.933Z,98.10
2018-02-24T07:58:45.597Z,97.80
2018-02-24T08:01:14.405Z,97.30
2018-02-24T08:03:46.631Z,97.30
2018-02-24T08:06:15.482Z,96.30
2018-02-24T08:11:19.932Z,96.30
2018-02-24T08:13:48.622Z,94.20
2018-02-24T08:16:17.279Z,92.90
2018-02-24T08:18:46.127Z,93.90
2018-02-24T08:21:14.854Z,94.00
2018-02-24T08:23:43.182Z,93.10
2018-02-24T08:26:11.943Z,93.10
2018-02-24T08:28:40.624Z,92.10
2018-02-24T08:31:10.046Z,92.60
2018-02-24T08:33:38.721Z,92.20
2018-02-24T08:36:08.178Z,90.60
2018-02-24T08:38:36.820Z,90.50
2018-02-24T08:41:06.303Z,90.60
2018-02-24T08:43:35.100Z,90.50
2018-02-24T08:46:03.796Z,89.50
2018-02-24T08:48:33.243Z,87.40
2018-02-24T08:51:01.907Z,87.30
2018-02-24T08:53:30.547Z,82.50
2018-02-24T08:55:59.238Z,81.00
2018-02-24T08:58:27.915Z,83.40
2018-02-24T09:00:56.400Z,81.70
2018-02-24T09:03:25.050Z,80.30
2018-02-24T09:05:53.598Z,77.90
2018-02-24T09:08:22.282Z,77.90
2018-02-24T09:10:50.980Z,74.00
2018-02-24T09:13:20.398Z,72.30
2018-02-24T09:15:49.580Z,72.20
2018-02-24T09:18:18.247Z,71.60
2018-02-24T09:20:47.684Z,71.10
2018-02-24T09:23:16.069Z,71.00
2018-02-24T09:25:44.444Z,70.50
2018-02-24T09:28:13.104Z,66.50
2018-02-24T09:30:41.476Z,69.50
2018-02-24T09:33:09.867Z,68.00
2018-02-24T09:35:38.528Z,65.70
2018-02-24T09:38:07.947Z,67.50
2018-02-24T09:40:36.592Z,67.50
2018-02-24T09:43:05.237Z,67.00
2018-02-24T09:45:33.884Z,66.30
2018-02-24T09:48:03.336Z,66.00
2018-02-24T09:50:31.735Z,66.00
2018-02-24T09:53:00.881Z,64.50
2018-02-24T09:55:29.267Z,65.20
2018-02-24T09:57:57.700Z,62.70
2018-02-24T10:00:26.095Z,61.70
2018-02-24T10:02:54.478Z,62.00
2018-02-24T10:05:22.868Z,62.60
2018-02-24T10:07:51.246Z,63.30
2018-02-24T10:10:19.627Z,61.30
2018-02-24T10:12:49.046Z,59.50
2018-02-24T10:15:17.477Z,59.50
2018-02-24T10:17:46.612Z,60.60
2018-02-24T10:20:15.017Z,60.50
2018-02-24T10:22:43.392Z,61.90
2018-02-24T10:25:11.793Z,61.10
2018-02-24T10:27:40.952Z,62.00
2018-02-24T10:30:10.238Z,62.00
2018-02-24T10:32:38.712Z,62.80
2018-02-24T10:35:07.135Z,59.80
2018-02-24T10:37:35.508Z,60.10
2018-02-24T10:40:03.883Z,61.20
2018-02-24T10:42:32.351Z,63.00
2018-02-24T10:45:00.769Z,62.80
2018-02-24T10:47:29.195Z,59.40
2018-02-24T10:49:57.590Z,58.30
2018-02-24T10:52:26.748Z,58.80
2018-02-24T10:54:55.143Z,58.70
2018-02-24T10:57:24.719Z,58.40
2018-02-24T10:59:53.869Z,57.50
2018-02-24T11:02:22.287Z,57.50
2018-02-24T11:04:51.437Z,57.30
2018-02-24T11:07:19.835Z,57.30
2018-02-24T11:09:48.232Z,57.50
2018-02-24T11:12:17.377Z,57.20
2018-02-24T11:14:45.832Z,57.30
2018-02-24T11:17:14.238Z,57.40
2018-02-24T11:19:43.547Z,59.30
2018-02-24T11:22:11.914Z,59.30
2018-02-24T11:24:40.307Z,61.20
2018-02-24T11:27:08.692Z,61.50
2018-02-24T11:29:37.091Z,60.20
2018-02-24T11:32:05.466Z,59.50
2018-02-24T11:34:33.840Z,59.50
2018-02-24T11:37:02.217Z,59.80
2018-02-24T11:39:36.242Z,58.80
2018-02-24T11:42:04.759Z,61.40
2018-02-24T11:44:33.189Z,59.30
2018-02-24T11:47:01.374Z,58.90
2018-02-24T11:49:29.751Z,58.70
2018-02-24T11:51:58.929Z,57.30
2018-02-24T11:54:27.131Z,57.30
2018-02-24T11:56:56.283Z,56.30
2018-02-24T11:59:24.656Z,56.30
2018-02-24T12:01:53.873Z,57.30
2018-02-24T12:04:22.295Z,57.30
2018-02-24T12:06:50.680Z,57.80
2018-02-24T12:09:18.855Z,57.00
2018-02-24T12:11:47.051Z,57.80
2018-02-24T12:14:15.425Z,56.30
2018-02-24T12:16:43.823Z,56.00
2018-02-24T12:19:12.195Z,56.90
2018-02-24T12:21:40.588Z,56.90
2018-02-24T12:24:08.991Z,58.00
2018-02-24T12:26:37.357Z,55.60
2018-02-24T12:29:05.737Z,56.00
2018-02-24T12:31:34.142Z,55.20
2018-02-24T12:34:02.687Z,57.00
2018-02-24T12:36:31.082Z,57.50
2018-02-24T12:38:59.455Z,58.50
2018-02-24T12:41:28.711Z,55.40
2018-02-24T12:43:57.106Z,55.20
2018-02-24T12:46:25.480Z,55.20
2018-02-24T12:48:53.851Z,57.00
2018-02-24T12:51:22.241Z,56.10
2018-02-24T12:53:50.660Z,56.40
2018-02-24T12:56:19.819Z,55.40
2018-02-24T12:58:48.204Z,55.40
2018-02-24T13:01:16.597Z,56.30
2018-02-24T13:03:44.965Z,54.30
2018-02-24T13:06:13.332Z,56.90
2018-02-24T13:08:41.717Z,54.10
2018-02-24T13:11:10.904Z,55.30
2018-02-24T13:13:39.283Z,55.40
2018-02-24T13:16:07.662Z,54.30
2018-02-24T13:18:35.711Z,54.90
2018-02-24T13:21:04.146Z,54.30
2018-02-24T13:23:33.350Z,54.10
2018-02-24T13:26:02.545Z,55.10
2018-02-24T13:28:31.774Z,54.60
2018-02-24T13:30:59.980Z,54.50
2018-02-24T13:33:28.177Z,53.70
2018-02-24T13:35:56.364Z,55.10
2018-02-24T13:38:25.336Z,55.10
2018-02-24T13:40:53.522Z,55.00
2018-02-24T13:43:21.900Z,56.40
2018-02-24T13:45:50.332Z,56.20
2018-02-24T13:48:18.726Z,56.80
2018-02-24T13:50:47.288Z,57.40
2018-02-24T13:53:15.856Z,57.10
2018-02-24T13:55:44.264Z,56.70
2018-02-24T13:58:12.647Z,56.40
2018-02-24T14:00:41.198Z,57.00
2018-02-24T14:03:09.684Z,55.80
2018-02-24T14:08:08.392Z,56.60
2018-02-24T14:10:36.773Z,56.70
2018-02-24T14:13:05.968Z,59.40
2018-02-24T14:15:34.501Z,59.40
2018-02-24T14:18:02.865Z,62.60
2018-02-24T14:20:31.261Z,63.90
2018-02-24T14:22:59.630Z,64.80
2018-02-24T14:25:28.014Z,66.30
2018-02-24T14:27:56.374Z,66.00
2018-02-24T14:30:24.958Z,67.50
2018-02-24T14:32:54.138Z,72.40
2018-02-24T14:35:22.640Z,72.50
2018-02-24T14:37:51.014Z,72.30
2018-02-24T14:40:19.416Z,72.80
2018-02-24T14:42:48.557Z,74.50
2018-02-24T14:45:16.941Z,74.10
2018-02-24T14:47:45.315Z,74.70
2018-02-24T14:50:13.689Z,74.30
2018-02-24T14:52:42.084Z,74.80
2018-02-24T14:55:10.471Z,76.00
2018-02-24T14:57:38.866Z,77.70
2018-02-24T15:00:06.921Z,78.10
2018-02-24T15:02:35.299Z,79.50
2018-02-24T15:05:04.468Z,81.60
2018-02-24T15:07:32.756Z,81.70
2018-02-24T15:10:01.123Z,82.30
2018-02-24T15:12:29.508Z,83.80
2018-02-24T15:14:57.688Z,84.30
2018-02-24T15:17:25.889Z,85.90
2018-02-24T15:19:54.058Z,85.60
2018-02-24T15:22:22.455Z,86.80
2018-02-24T15:24:50.674Z,88.40
2018-02-24T15:27:18.882Z,90.10
2018-02-24T15:29:47.261Z,99.90
2018-02-24T15:32:15.663Z,91.70
2018-02-24T15:37:13.820Z,92.70
2018-02-24T15:39:42.204Z,92.70
2018-02-24T15:42:10.593Z,95.30
2018-02-24T15:44:38.987Z,99.30
2018-02-24T15:47:08.122Z,95.30
2018-02-24T15:49:36.609Z,95.20
2018-02-24T15:52:04.981Z,99.90
2018-02-24T15:54:33.484Z,94.80
2018-02-24T15:57:01.904Z,95.20
2018-02-24T15:59:31.056Z,96.00
2018-02-24T16:01:59.428Z,96.00
2018-02-24T16:04:27.811Z,95.60
2018-02-24T16:06:56.191Z,95.80
2018-02-24T16:09:24.583Z,96.60
2018-02-24T16:11:52.982Z,96.90
2018-02-24T16:14:21.636Z,97.00
2018-02-24T16:16:50.769Z,96.30
2018-02-24T16:19:19.531Z,96.30
2018-02-24T16:21:48.073Z,96.30
2018-02-24T16:24:16.441Z,96.80
2018-02-24T16:26:44.822Z,97.30
2018-02-24T16:29:13.446Z,97.70
2018-02-24T16:31:41.828Z,98.20
2018-02-24T16:34:10.208Z,98.60
2018-02-24T16:36:38.584Z,99.00
2018-02-24T16:39:06.953Z,99.20
2018-02-24T16:41:35.345Z,99.20
2018-02-24T16:44:03.997Z,99.10
2018-02-24T16:46:32.390Z,99.50
2018-02-24T16:49:01.056Z,98.70
2018-02-24T16:51:29.692Z,97.80
2018-02-24T16:53:58.317Z,98.30
2018-02-24T16:56:26.696Z,97.70
2018-02-24T16:58:55.336Z,97.80
2018-02-24T17:01:23.974Z,97.60
2018-02-24T17:03:53.364Z,97.60
2018-02-24T17:06:22.032Z,97.50
2018-02-24T17:08:50.671Z,97.50
2018-02-24T17:11:21.470Z,97.70
2018-02-24T17:13:50.183Z,98.00
2018-02-24T17:16:19.588Z,97.80
2018-02-24T17:18:49.007Z,97.70
2018-02-24T17:21:17.640Z,97.70
2018-02-24T17:23:46.301Z,97.70
2018-02-24T17:26:14.936Z,97.90
2018-02-24T17:28:43.577Z,98.10
2018-02-24T17:31:12.212Z,98.30
2018-02-24T17:33:41.631Z,99.00
2018-02-24T17:36:10.255Z,98.90
2018-02-24T17:38:38.718Z,99.30
2018-02-24T17:41:08.785Z,99.70
2018-02-24T17:43:38.207Z,99.90
2018-02-24T17:46:07.667Z,99.90
2018-02-24T17:48:37.202Z,99.90
2018-02-24T17:51:05.840Z,99.90
2018-02-24T17:53:34.512Z,99.90
2018-02-24T17:56:03.149Z,99.90
2018-02-24T17:58:31.795Z,99.90
2018-02-24T18:01:01.084Z,99.90
2018-02-24T18:03:29.537Z,99.90
2018-02-24T18:05:58.189Z,99.90
2018-02-24T18:08:26.836Z,99.90
2018-02-24T18:10:55.488Z,99.90
2018-02-24T18:13:24.900Z,99.90
2018-02-24T18:15:53.662Z,99.90
2018-02-24T18:18:23.064Z,99.90
2018-02-24T18:20:51.704Z,99.90
2018-02-24T18:23:20.340Z,99.90
2018-02-24T18:25:49.751Z,99.90
2018-02-24T18:28:18.406Z,99.90
2018-02-24T18:30:47.088Z,99.90
2018-02-24T18:33:15.914Z,99.90
2018-02-24T18:35:44.577Z,99.90
2018-02-24T18:38:13.985Z,99.90
2018-02-24T18:40:43.431Z,99.90
2018-02-24T18:43:12.076Z,99.90
2018-02-24T18:45:41.491Z,99.90
2018-02-24T18:48:10.120Z,99.90
2018-02-24T18:50:38.767Z,99.90
2018-02-24T18:53:07.417Z,99.90
2018-02-24T18:55:36.058Z,99.90
2018-02-24T18:58:04.722Z,99.90
2018-02-24T19:00:33.364Z,99.90
2018-02-24T19:03:02.022Z,99.90
2018-02-24T19:05:31.424Z,99.90
2018-02-24T19:08:00.102Z,99.90
2018-02-24T19:10:28.549Z,99.90
2018-02-24T19:12:57.205Z,99.90
2018-02-24T19:15:25.849Z,99.90
2018-02-24T19:17:54.514Z,99.90
2018-02-24T19:20:22.949Z,99.90
2018-02-24T19:22:51.603Z,99.90
2018-02-24T19:25:20.060Z,99.90
2018-02-24T19:27:48.708Z,99.90
2018-02-24T19:30:17.923Z,99.90
2018-02-24T19:32:46.622Z,99.90
2018-02-24T19:35:15.275Z,99.90
2018-02-24T19:37:44.677Z,99.90
2018-02-24T19:40:14.099Z,99.90
2018-02-24T19:42:42.748Z,99.90
2018-02-24T19:45:11.391Z,99.90
2018-02-24T19:47:40.793Z,99.90
2018-02-24T19:50:09.735Z,99.90
2018-02-24T19:52:38.431Z,99.90
2018-02-24T19:55:07.898Z,99.90
2018-02-24T19:57:36.632Z,99.90
2018-02-24T20:00:05.571Z,99.90
2018-02-24T20:02:35.186Z,99.90
2018-02-24T20:05:04.475Z,99.90
2018-02-24T20:07:33.146Z,99.90
2018-02-24T20:10:01.861Z,99.90
2018-02-24T20:12:30.495Z,99.90
2018-02-24T20:14:59.216Z,99.90
2018-02-24T20:17:28.082Z,99.90
2018-02-24T20:19:56.946Z,99.90
2018-02-24T20:22:26.649Z,99.90
2018-02-24T20:24:56.080Z,99.90
2018-02-24T20:27:24.720Z,99.90
2018-02-24T20:29:53.367Z,99.90
2018-02-24T20:32:22.036Z,99.90
2018-02-24T20:34:50.762Z,99.90
2018-02-24T20:37:19.616Z,99.90
2018-02-24T20:39:48.313Z,99.90
2018-02-24T20:42:16.980Z,99.90
2018-02-24T20:44:45.617Z,99.90
2018-02-24T20:47:14.266Z,99.90
2018-02-24T20:49:42.968Z,99.90
2018-02-24T20:52:11.646Z,99.90
2018-02-24T20:54:40.324Z,99.90
2018-02-24T20:57:09.068Z,99.90
2018-02-24T20:59:37.724Z,99.90
2018-02-24T21:02:06.368Z,99.90
2018-02-24T21:04:35.198Z,99.90
2018-02-24T21:07:04.667Z,99.90
2018-02-24T21:09:33.385Z,99.90
2018-02-24T21:12:02.042Z,99.90
2018-02-24T21:14:30.687Z,99.90
2018-02-24T21:17:00.173Z,99.90
2018-02-24T21:19:34.602Z,99.90
2018-02-24T21:22:04.049Z,99.90
2018-02-24T21:24:32.732Z,99.90
2018-02-24T21:27:01.363Z,99.90
2018-02-24T21:29:30.032Z,99.90
2018-02-24T21:31:58.762Z,99.90
2018-02-24T21:34:27.644Z,99.90
2018-02-24T21:36:57.128Z,99.90
2018-02-24T21:39:25.773Z,99.90
2018-02-24T21:41:54.408Z,99.90
2018-02-24T21:44:23.833Z,99.90
2018-02-24T21:46:52.476Z,99.90
2018-02-24T21:49:21.132Z,99.90
2018-02-24T21:51:49.777Z,99.90
2018-02-24T21:54:18.442Z,99.90
2018-02-24T21:56:46.898Z,99.90
2018-02-24T21:59:15.561Z,99.90
2018-02-24T22:01:44.198Z,99.90
2018-02-24T22:04:13.416Z,99.90
2018-02-24T22:06:42.060Z,99.90
2018-02-24T22:09:10.707Z,99.90
2018-02-24T22:11:39.373Z,99.90
2018-02-24T22:14:08.043Z,99.90
2018-02-24T22:16:37.460Z,99.90
2018-02-24T22:19:06.120Z,99.90
2018-02-24T22:21:35.529Z,99.90
2018-02-24T22:24:04.162Z,99.90
2018-02-24T22:26:32.814Z,99.90
2018-02-24T22:29:01.580Z,99.90
2018-02-24T22:31:31.003Z,99.90
2018-02-24T22:33:59.704Z,99.90
2018-02-24T22:36:28.384Z,99.90
2018-02-24T22:38:57.066Z,99.90
2018-02-24T22:41:25.823Z,99.90
2018-02-24T22:43:55.236Z,99.60
2018-02-24T22:46:24.832Z,99.80
2018-02-24T22:48:59.060Z,99.80
2018-02-24T22:51:28.494Z,99.10
2018-02-24T22:53:57.295Z,99.10
2018-02-24T22:56:25.940Z,99.30
2018-02-24T22:58:55.359Z,99.20
2018-02-24T23:01:24.016Z,99.20
2018-02-24T23:03:53.432Z,99.00
2018-02-24T23:06:22.103Z,99.00
2018-02-24T23:08:51.530Z,98.90
2018-02-24T23:11:20.274Z,98.90
2018-02-24T23:13:48.921Z,99.10
2018-02-24T23:16:17.662Z,99.00
2018-02-24T23:18:47.200Z,99.20
2018-02-24T23:21:15.847Z,99.20
2018-02-24T23:23:45.276Z,99.10
2018-02-24T23:26:13.916Z,99.10
2018-02-24T23:28:42.561Z,99.20
2018-02-24T23:31:11.299Z,99.10
2018-02-24T23:33:39.953Z,99.30
2018-02-24T23:36:08.089Z,99.10
2018-02-24T23:38:36.752Z,99.10
2018-02-24T23:41:06.895Z,99.10
2018-02-24T23:43:35.596Z,99.10
2018-02-24T23:46:04.269Z,99.50
2018-02-24T23:48:32.903Z,99.00
2018-02-24T23:51:01.380Z,99.20
2018-02-24T23:53:29.829Z,99.50
2018-02-24T23:55:58.286Z,99.50
2018-02-24T23:58:26.941Z,99.60
